Time;durP1;ratioP1;P1;durP2;ratioP2;P2;SDS_P1;SDS_P2;PMS_P1;PMS_P2;Temp;Humidity;BMP_temperature;BMP_pressure;BME280_temperature;BME280_humidity;BME280_pressure;Samples;Min_cycle;Max_cycle;Signal;HPM_P1;HPM_P2
2022/07/05 00:02:08;;;;;;;9.15;4.25;;;27.30;62.20;;;;;;4966932;28;20208;-75
2022/07/05 00:04:37;;;;;;;10.02;4.10;;;27.30;62.30;;;;;;4971029;28;20649;-75
2022/07/05 00:07:20;;;;;;;6.20;4.03;;;27.20;62.30;;;;;;4974409;28;21122;-75
2022/07/05 00:09:50;;;;;;;6.72;3.83;;;27.20;62.30;;;;;;4987218;28;20188;-75
2022/07/05 00:12:20;;;;;;;8.70;4.35;;;27.20;62.30;;;;;;4975353;28;20197;-75
2022/07/05 00:14:50;;;;;;;6.32;4.20;;;27.20;62.40;;;;;;4975494;28;20714;-76
2022/07/05 00:17:19;;;;;;;7.90;3.85;;;27.20;62.40;;;;;;4979319;28;20201;-75
2022/07/05 00:19:48;;;;;;;6.18;3.97;;;27.20;62.50;;;;;;4977123;28;20204;-76
2022/07/05 00:22:16;;;;;;;8.63;3.75;;;27.10;62.50;;;;;;4976184;28;20323;-75
2022/07/05 00:24:45;;;;;;;6.55;4.18;;;27.10;62.70;;;;;;4980228;28;20213;-75
2022/07/05 00:27:14;;;;;;;7.10;3.90;;;27.10;62.90;;;;;;4982964;28;20647;-75
2022/07/05 00:29:43;;;;;;;9.07;3.47;;;27.10;63.00;;;;;;4982913;28;20204;-75
2022/07/05 00:32:13;;;;;;;5.93;4.10;;;27.10;63.10;;;;;;4973028;28;20251;-75
2022/07/05 00:34:42;;;;;;;9.10;3.88;;;27.10;63.10;;;;;;4980053;28;20571;-75
2022/07/05 00:37:10;;;;;;;7.35;3.75;;;27.00;63.20;;;;;;4972587;28;20208;-75
2022/07/05 00:39:39;;;;;;;7.93;3.60;;;27.00;63.40;;;;;;4977087;28;20193;-76
2022/07/05 00:42:08;;;;;;;10.38;3.65;;;27.00;63.50;;;;;;4980266;28;20208;-75
2022/07/05 00:44:39;;;;;;;6.60;3.63;;;26.90;63.50;;;;;;4981834;28;20197;-75
2022/07/05 00:47:10;;;;;;;6.78;3.50;;;26.90;63.50;;;;;;4979882;28;20225;-76
2022/07/05 00:49:40;;;;;;;9.55;3.85;;;26.90;63.40;;;;;;4984546;28;20213;-75
2022/07/05 00:52:10;;;;;;;6.80;3.50;;;26.90;63.40;;;;;;4976734;28;20204;-75
2022/07/05 00:54:48;;;;;;;7.20;3.40;;;26.90;63.30;;;;;;4973109;28;20328;-75
2022/07/05 00:57:17;;;;;;;7.47;3.42;;;26.90;63.40;;;;;;4979137;28;20202;-75
2022/07/05 00:59:45;;;;;;;9.32;3.00;;;26.80;63.60;;;;;;4970733;28;20208;-75
2022/07/05 01:02:14;;;;;;;5.32;2.90;;;26.80;63.50;;;;;;4970369;28;20200;-76
2022/07/05 01:04:49;;;;;;;7.50;3.00;;;26.80;63.40;;;;;;4981378;28;20228;-75
2022/07/05 01:07:20;;;;;;;12.00;3.25;;;26.70;63.30;;;;;;4978814;28;20359;-75
2022/07/05 01:09:48;;;;;;;8.27;3.10;;;26.80;63.30;;;;;;4978848;28;20623;-75
2022/07/05 01:12:18;;;;;;;7.32;3.05;;;26.70;63.10;;;;;;4988074;28;20197;-75
2022/07/05 01:14:47;;;;;;;5.93;3.20;;;26.80;63.20;;;;;;4967777;28;20225;-76
2022/07/05 01:17:16;;;;;;;7.60;3.05;;;26.80;63.20;;;;;;4977614;28;20698;-75
2022/07/05 01:19:45;;;;;;;5.28;2.92;;;26.80;63.30;;;;;;4978060;28;20220;-75
2022/07/05 01:22:19;;;;;;;6.95;2.95;;;26.70;63.20;;;;;;4975649;28;20240;-76
2022/07/05 01:24:50;;;;;;;6.35;3.13;;;26.70;63.20;;;;;;4973625;28;20204;-75
2022/07/05 01:27:19;;;;;;;4.30;2.97;;;26.70;63.10;;;;;;4976791;28;20198;-76
2022/07/05 01:29:48;;;;;;;4.68;2.90;;;26.70;63.00;;;;;;4978674;28;20220;-75
2022/07/05 01:32:16;;;;;;;7.00;3.10;;;26.70;62.90;;;;;;4974647;28;20208;-76
2022/07/05 01:34:45;;;;;;;6.63;3.38;;;26.70;62.90;;;;;;4976932;28;20252;-75
2022/07/05 01:37:14;;;;;;;7.20;3.00;;;26.70;62.90;;;;;;4974128;28;20259;-76
2022/07/05 01:39:42;;;;;;;8.50;3.75;;;26.70;62.80;;;;;;4980734;28;20283;-76
2022/07/05 01:42:12;;;;;;;5.00;2.92;;;26.70;62.70;;;;;;4974148;28;20201;-76
2022/07/05 01:44:40;;;;;;;4.95;2.92;;;26.70;62.70;;;;;;4977977;28;20205;-76
2022/07/05 01:47:09;;;;;;;7.20;3.30;;;26.70;62.70;;;;;;4979883;28;20205;-76
2022/07/05 01:49:42;;;;;;;8.38;3.20;;;26.70;62.70;;;;;;4974606;28;20213;-76
2022/07/05 01:52:11;;;;;;;7.05;3.13;;;26.70;62.80;;;;;;4978785;28;20208;-76
2022/07/05 01:54:40;;;;;;;5.72;3.08;;;26.60;62.80;;;;;;4977481;28;20206;-76
2022/07/05 01:57:12;;;;;;;8.07;3.60;;;26.60;62.90;;;;;;4978307;28;20202;-75
2022/07/05 01:59:40;;;;;;;9.75;4.18;;;26.60;63.10;;;;;;4984362;28;20192;-76
2022/07/05 02:02:09;;;;;;;9.15;4.18;;;26.60;63.40;;;;;;4976876;28;20213;-76
2022/07/05 02:04:38;;;;;;;16.27;4.60;;;26.60;63.40;;;;;;4979760;28;20205;-76
2022/07/05 02:07:08;;;;;;;5.95;3.97;;;26.60;63.70;;;;;;4975287;28;20239;-76
2022/07/05 02:09:37;;;;;;;10.43;3.88;;;26.50;63.70;;;;;;4972672;28;20206;-77
2022/07/05 02:12:06;;;;;;;13.20;5.30;;;26.50;63.80;;;;;;4972109;28;20205;-76
2022/07/05 02:14:36;;;;;;;8.88;4.97;;;26.50;64.30;;;;;;4979585;28;20204;-76
2022/07/05 02:17:05;;;;;;;8.75;5.07;;;26.50;65.60;;;;;;4979958;28;20217;-76
2022/07/05 02:19:35;;;;;;;10.90;6.35;;;26.40;64.90;;;;;;4980269;28;20190;-76
2022/07/05 02:22:04;;;;;;;15.93;6.47;;;26.40;65.40;;;;;;4980768;28;20201;-76
2022/07/05 02:24:32;;;;;;;11.30;5.72;;;26.40;65.70;;;;;;4977764;28;20196;-75
2022/07/05 02:27:01;;;;;;;14.02;7.05;;;26.40;66.20;;;;;;4968820;28;20209;-75
2022/07/05 02:29:29;;;;;;;11.13;7.65;;;26.40;66.70;;;;;;4983201;28;20223;-75
2022/07/05 02:31:59;;;;;;;12.60;7.78;;;26.40;67.60;;;;;;4980021;28;20208;-75
2022/07/05 02:34:28;;;;;;;12.63;7.90;;;26.30;68.00;;;;;;4979644;28;20636;-75
2022/07/05 02:36:56;;;;;;;14.20;8.38;;;26.30;68.40;;;;;;4977643;28;20670;-74
2022/07/05 02:39:24;;;;;;;14.82;8.63;;;26.30;68.70;;;;;;4983518;28;20231;-76
2022/07/05 02:41:53;;;;;;;13.73;8.13;;;26.20;69.00;;;;;;4976920;28;20209;-75
2022/07/05 02:44:21;;;;;;;17.05;9.30;;;26.20;69.40;;;;;;4979716;28;20221;-75
2022/07/05 02:46:49;;;;;;;13.80;8.40;;;26.20;70.00;;;;;;4976569;28;20228;-74
2022/07/05 02:49:19;;;;;;;14.93;8.18;;;26.20;71.30;;;;;;4977201;28;20225;-76
2022/07/05 02:51:47;;;;;;;13.10;8.55;;;26.20;70.80;;;;;;4982512;28;20229;-76
2022/07/05 02:54:17;;;;;;;14.82;8.25;;;26.10;71.20;;;;;;4975451;28;20197;-75
2022/07/05 02:56:45;;;;;;;14.23;9.13;;;26.10;71.40;;;;;;4978529;28;20205;-76
2022/07/05 02:59:14;;;;;;;16.40;8.63;;;26.10;71.70;;;;;;4981674;28;20677;-75
2022/07/05 03:01:42;;;;;;;12.82;8.30;;;26.10;71.90;;;;;;4982306;28;20744;-76
2022/07/05 03:04:10;;;;;;;16.50;9.18;;;26.10;72.20;;;;;;4976716;28;20585;-76
2022/07/05 03:06:40;;;;;;;17.35;8.90;;;26.10;72.50;;;;;;4988639;28;20928;-76
2022/07/05 03:09:09;;;;;;;14.48;8.82;;;26.10;72.80;;;;;;4980681;28;20224;-76
2022/07/05 03:11:37;;;;;;;13.98;8.30;;;26.10;73.10;;;;;;4983400;28;20204;-76
2022/07/05 03:14:05;;;;;;;15.02;9.02;;;26.10;73.30;;;;;;4981580;28;20201;-76
2022/07/05 03:16:34;;;;;;;18.67;10.60;;;26.10;73.50;;;;;;4977562;28;21100;-75
2022/07/05 03:19:02;;;;;;;15.65;10.05;;;26.00;74.80;;;;;;4980004;28;20189;-75
2022/07/05 03:21:30;;;;;;;16.70;9.65;;;26.10;74.80;;;;;;4975302;28;20201;-75
2022/07/05 03:24:00;;;;;;;15.85;9.45;;;26.10;74.80;;;;;;4983556;28;20259;-76
2022/07/05 03:26:28;;;;;;;17.70;9.40;;;26.00;74.90;;;;;;4981697;28;20453;-76
2022/07/05 03:28:57;;;;;;;15.15;9.18;;;26.10;75.80;;;;;;4968822;28;20385;-75
2022/07/05 03:31:25;;;;;;;20.95;10.43;;;26.10;75.10;;;;;;4978439;28;20201;-75
2022/07/05 03:33:54;;;;;;;17.65;10.57;;;26.10;75.10;;;;;;4975782;28;20239;-76
2022/07/05 03:36:22;;;;;;;16.55;9.63;;;26.10;75.20;;;;;;4982481;28;20204;-75
2022/07/05 03:38:50;;;;;;;21.10;10.82;;;26.10;75.40;;;;;;4986086;28;20196;-75
2022/07/05 03:41:20;;;;;;;15.63;9.63;;;26.10;75.60;;;;;;4983722;28;20935;-76
2022/07/05 03:43:48;;;;;;;24.10;15.07;;;26.20;75.80;;;;;;4983365;28;20193;-75
2022/07/05 03:46:17;;;;;;;43.88;27.65;;;26.20;75.80;;;;;;4985343;28;20228;-75
2022/07/05 03:48:45;;;;;;;40.65;25.77;;;26.20;75.90;;;;;;4985318;28;20209;-75
2022/07/05 03:51:13;;;;;;;31.13;21.70;;;26.20;75.80;;;;;;4977221;28;20233;-76
2022/07/05 03:53:42;;;;;;;27.50;13.50;;;26.30;76.90;;;;;;4976784;28;20201;-74
2022/07/05 03:56:10;;;;;;;18.60;10.40;;;26.30;76.10;;;;;;4979469;28;20224;-76
2022/07/05 03:58:41;;;;;;;16.27;9.45;;;26.40;76.40;;;;;;4980143;28;20255;-76
2022/07/05 04:01:09;;;;;;;16.05;9.00;;;26.40;76.60;;;;;;4982260;28;20197;-76
2022/07/05 04:03:38;;;;;;;13.43;8.43;;;26.40;76.50;;;;;;4977347;28;20198;-75
2022/07/05 04:06:09;;;;;;;15.25;8.88;;;26.40;76.50;;;;;;4982776;28;20288;-75
2022/07/05 04:08:38;;;;;;;14.65;8.85;;;26.50;77.00;;;;;;4984453;28;20204;-75
2022/07/05 04:11:07;;;;;;;14.60;9.35;;;26.50;77.20;;;;;;4979924;28;20220;-76
2022/07/05 04:13:36;;;;;;;13.75;8.32;;;26.50;77.10;;;;;;4972011;28;20212;-76
2022/07/05 04:16:06;;;;;;;14.02;9.15;;;26.60;77.00;;;;;;4979287;28;20209;-76
2022/07/05 04:18:34;;;;;;;12.77;8.60;;;26.60;77.10;;;;;;4979063;28;20887;-75
2022/07/05 04:21:03;;;;;;;18.05;10.23;;;26.70;77.00;;;;;;4968272;28;20198;-76
2022/07/05 04:23:32;;;;;;;19.13;9.60;;;26.70;77.00;;;;;;4975946;28;20208;-75
2022/07/05 04:26:02;;;;;;;13.40;9.10;;;26.80;77.00;;;;;;4979289;28;20201;-76
2022/07/05 04:28:30;;;;;;;19.85;9.38;;;26.80;76.80;;;;;;4979821;28;20201;-75
2022/07/05 04:30:59;;;;;;;18.25;8.48;;;26.90;76.60;;;;;;4978054;28;20240;-76
2022/07/05 04:33:29;;;;;;;12.60;8.18;;;26.90;76.30;;;;;;4979599;28;20196;-76
2022/07/05 04:35:57;;;;;;;14.82;8.45;;;26.90;76.00;;;;;;4979292;28;20715;-76
2022/07/05 04:38:25;;;;;;;11.35;8.32;;;27.00;75.80;;;;;;4983496;28;20193;-76
2022/07/05 04:40:54;;;;;;;13.68;8.55;;;27.00;75.70;;;;;;4974139;28;20205;-76
2022/07/05 04:43:22;;;;;;;17.42;7.80;;;27.10;75.70;;;;;;4971774;28;20793;-76
2022/07/05 04:45:50;;;;;;;13.88;8.77;;;27.10;75.60;;;;;;4972754;28;20201;-76
2022/07/05 04:48:23;;;;;;;20.95;8.35;;;27.10;75.60;;;;;;4973264;28;20864;-76
2022/07/05 04:50:53;;;;;;;14.32;7.65;;;27.20;75.50;;;;;;4982291;28;20229;-75
2022/07/05 04:53:21;;;;;;;13.60;7.75;;;27.30;75.50;;;;;;4982457;28;20197;-76
2022/07/05 04:55:50;;;;;;;15.90;9.05;;;27.30;75.50;;;;;;4975390;28;20239;-76
2022/07/05 04:58:18;;;;;;;15.48;8.27;;;27.40;75.50;;;;;;4973129;28;20205;-75
2022/07/05 05:00:46;;;;;;;17.80;9.02;;;27.40;75.50;;;;;;4982090;28;20209;-76
2022/07/05 05:03:15;;;;;;;16.60;10.23;;;27.50;75.60;;;;;;4980337;28;20222;-77
2022/07/05 05:05:43;;;;;;;15.30;9.43;;;27.50;75.60;;;;;;4982143;28;20208;-76
2022/07/05 05:08:13;;;;;;;24.70;10.32;;;27.60;75.60;;;;;;4979393;28;20200;-76
2022/07/05 05:10:41;;;;;;;19.98;9.07;;;27.60;75.50;;;;;;4979930;28;20219;-76
2022/07/05 05:13:10;;;;;;;15.73;7.88;;;27.60;75.30;;;;;;4981195;28;20671;-75
2022/07/05 05:15:38;;;;;;;11.68;6.60;;;27.70;75.00;;;;;;4981815;28;20208;-76
2022/07/05 05:18:06;;;;;;;10.25;6.28;;;27.80;74.80;;;;;;4981625;28;20201;-75
2022/07/05 05:20:35;;;;;;;12.68;7.15;;;27.80;74.50;;;;;;4984879;28;20869;-76
2022/07/05 05:23:08;;;;;;;9.98;6.15;;;27.80;74.20;;;;;;4980147;28;20230;-75
2022/07/05 05:25:37;;;;;;;10.88;5.45;;;27.90;74.10;;;;;;4981339;28;20208;-75
2022/07/05 05:28:06;;;;;;;10.98;4.72;;;27.90;73.80;;;;;;4982320;28;20205;-76
2022/07/05 05:30:34;;;;;;;9.75;4.90;;;28.00;73.00;;;;;;4986562;28;20217;-75
2022/07/05 05:33:02;;;;;;;11.80;4.68;;;28.00;72.30;;;;;;4983348;28;20201;-75
2022/07/05 05:35:31;;;;;;;8.18;4.80;;;28.00;71.90;;;;;;4980212;28;20204;-76
2022/07/05 05:37:59;;;;;;;15.43;5.65;;;28.10;71.40;;;;;;4979991;28;20791;-75
2022/07/05 05:40:27;;;;;;;11.88;4.75;;;28.10;71.00;;;;;;4980303;28;20209;-76
2022/07/05 05:42:57;;;;;;;11.75;5.00;;;28.10;70.70;;;;;;4988105;28;20315;-75
2022/07/05 05:45:26;;;;;;;10.38;5.28;;;28.20;69.90;;;;;;4986961;28;20201;-77
2022/07/05 05:47:57;;;;;;;14.82;5.97;;;28.20;69.10;;;;;;4987500;28;20205;-76
2022/07/05 05:50:27;;;;;;;10.02;5.43;;;28.20;68.60;;;;;;4986234;28;20225;-75
2022/07/05 05:52:55;;;;;;;12.13;5.18;;;28.30;68.70;;;;;;4987918;28;20201;-76
2022/07/05 05:55:25;;;;;;;15.23;5.07;;;28.40;68.30;;;;;;4984571;28;20562;-76
2022/07/05 05:57:54;;;;;;;12.05;5.25;;;28.40;67.70;;;;;;4996934;28;20238;-76
2022/07/05 06:00:25;;;;;;;10.30;4.72;;;28.40;67.30;;;;;;4989192;28;20209;-75
2022/07/05 06:02:54;;;;;;;13.55;4.97;;;28.50;67.20;;;;;;4990063;28;20227;-77
2022/07/05 06:05:22;;;;;;;11.85;4.43;;;28.60;66.30;;;;;;4987082;28;20575;-76
2022/07/05 06:07:53;;;;;;;8.57;4.70;;;28.60;65.40;;;;;;4991283;28;20736;-75
2022/07/05 06:10:23;;;;;;;12.25;4.32;;;28.70;65.00;;;;;;4988329;28;20521;-76
2022/07/05 06:12:53;;;;;;;11.60;4.72;;;28.70;64.00;;;;;;4988485;28;20208;-76
2022/07/05 06:15:23;;;;;;;8.32;4.00;;;28.70;63.30;;;;;;4992241;28;20201;-76
2022/07/05 06:17:51;;;;;;;11.27;4.10;;;28.80;63.00;;;;;;4986039;28;20224;-76
2022/07/05 06:20:21;;;;;;;7.82;3.80;;;28.80;62.70;;;;;;4992250;28;20196;-78
2022/07/05 06:22:52;;;;;;;7.05;3.85;;;28.90;62.30;;;;;;4997484;28;20827;-78
2022/07/05 06:25:21;;;;;;;26.02;4.78;;;28.90;62.40;;;;;;4995022;28;20642;-77
2022/07/05 06:28:07;;;;;;;11.07;4.10;;;28.90;61.30;;;;;;4989382;28;20201;-77
2022/07/05 06:30:39;;;;;;;7.43;3.88;;;29.00;61.50;;;;;;4988066;28;20188;-78
2022/07/05 06:33:07;;;;;;;8.80;4.20;;;29.00;61.80;;;;;;4998516;28;20208;-77
2022/07/05 06:35:35;;;;;;;20.38;4.57;;;29.10;61.90;;;;;;4989914;28;20193;-77
2022/07/05 06:38:06;;;;;;;9.18;3.85;;;29.10;61.70;;;;;;4989857;28;20636;-77
2022/07/05 06:40:36;;;;;;;10.73;4.65;;;29.20;61.80;;;;;;4988472;28;20202;-78
2022/07/05 06:43:06;;;;;;;10.88;4.05;;;29.20;61.80;;;;;;4991293;28;20193;-76
2022/07/05 06:45:35;;;;;;;14.05;4.07;;;29.20;61.90;;;;;;4988971;28;20633;-77
2022/07/05 06:48:06;;;;;;;9.13;3.58;;;29.30;61.60;;;;;;4988283;28;20208;-77
2022/07/05 06:50:36;;;;;;;10.38;3.65;;;29.30;61.30;;;;;;4988681;28;20600;-77
2022/07/05 06:53:05;;;;;;;6.88;3.25;;;29.40;61.40;;;;;;4987775;28;20621;-77
2022/07/05 06:55:33;;;;;;;6.53;2.95;;;29.40;61.40;;;;;;4989201;28;20212;-77
2022/07/05 06:58:03;;;;;;;11.05;3.00;;;29.50;61.20;;;;;;4993600;28;20592;-76
2022/07/05 07:00:40;;;;;;;9.30;3.03;;;29.50;60.60;;;;;;4989397;28;20205;-78
2022/07/05 07:03:30;;;;;;;6.80;3.35;;;29.60;60.50;;;;;;4989429;28;20223;-78
2022/07/05 07:06:19;;;;;;;9.23;2.85;;;29.70;60.10;;;;;;4975060;28;20209;-76
2022/07/05 07:11:33;;;;;;;9.02;2.80;;;29.90;59.70;;;;;;4990860;28;20693;-76
2022/07/05 07:14:01;;;;;;;8.13;2.40;;;29.90;58.80;;;;;;4975579;28;20823;-77
2022/07/05 07:16:29;;;;;;;6.32;2.40;;;30.00;58.90;;;;;;4989225;28;20208;-77
2022/07/05 07:18:59;;;;;;;8.45;2.25;;;30.10;58.80;;;;;;4992047;28;20319;-77
2022/07/05 07:21:40;;;;;;;6.38;2.25;;;30.10;58.40;;;;;;4989384;28;20204;-77
2022/07/05 07:24:09;;;;;;;7.47;2.08;;;30.30;58.00;;;;;;4989002;28;20716;-76
2022/07/05 07:29:22;;;;;;;7.63;3.05;;;30.40;57.70;;;;;;4985224;28;20255;-76
2022/07/05 07:31:51;;;;;;;10.13;2.22;;;30.40;58.20;;;;;;4984763;28;20603;-76
2022/07/05 07:34:21;;;;;;;9.57;2.65;;;30.50;57.60;;;;;;4987338;28;20641;-77
2022/07/05 07:36:49;;;;;;;5.75;2.33;;;30.60;57.10;;;;;;4989248;28;20588;-76
2022/07/05 07:39:21;;;;;;;8.10;2.35;;;30.60;56.80;;;;;;4987431;28;20296;-77
2022/07/05 07:41:48;;;;;;;5.90;2.80;;;30.70;56.80;;;;;;4987535;28;20193;-77
2022/07/05 07:44:17;;;;;;;6.88;2.17;;;30.70;56.40;;;;;;4989649;28;20205;-76
2022/07/05 07:46:46;;;;;;;5.97;2.53;;;30.70;56.50;;;;;;4986733;28;20790;-77
2022/07/05 07:49:15;;;;;;;9.75;3.33;;;30.70;56.50;;;;;;4991654;28;20204;-77
2022/07/05 07:51:45;;;;;;;8.80;3.03;;;30.70;56.70;;;;;;4994484;28;20229;-76
2022/07/05 07:54:13;;;;;;;4.45;2.38;;;30.70;56.90;;;;;;4985375;28;20240;-76
2022/07/05 07:56:42;;;;;;;20.42;6.38;;;30.70;56.60;;;;;;4990357;28;20288;-77
2022/07/05 07:59:11;;;;;;;9.82;3.88;;;30.80;56.50;;;;;;4981961;28;20201;-75
2022/07/05 08:01:39;;;;;;;8.48;2.90;;;30.90;56.40;;;;;;4981906;28;20201;-75
2022/07/05 08:04:14;;;;;;;17.77;6.35;;;30.90;56.30;;;;;;4984024;28;20195;-76
2022/07/05 08:06:45;;;;;;;20.30;4.53;;;31.00;56.30;;;;;;4984678;28;20193;-76
2022/07/05 08:09:13;;;;;;;9.48;4.35;;;31.00;55.80;;;;;;4983703;28;20201;-76
2022/07/05 08:11:46;;;;;;;12.35;3.13;;;31.10;55.90;;;;;;4984550;28;20712;-76
2022/07/05 08:14:15;;;;;;;5.70;2.95;;;31.20;56.00;;;;;;4984159;28;20722;-76
2022/07/05 08:16:44;;;;;;;4.65;2.35;;;31.30;55.70;;;;;;4982345;28;20638;-75
2022/07/05 08:22:08;;;;;;;10.77;2.88;;;31.50;55.30;;;;;;4981754;28;20228;-75
2022/07/05 08:24:39;;;;;;;10.02;2.70;;;31.50;55.10;;;;;;4980524;28;20302;-74
2022/07/05 08:27:07;;;;;;;13.77;2.85;;;31.60;54.80;;;;;;4979678;28;20197;-75
2022/07/05 08:29:36;;;;;;;5.28;2.40;;;31.70;55.00;;;;;;4989083;28;20206;-75
2022/07/05 08:32:06;;;;;;;12.40;3.05;;;31.70;55.00;;;;;;4987848;28;20699;-77
2022/07/05 08:34:34;;;;;;;12.77;2.95;;;31.80;55.00;;;;;;4985321;28;20201;-77
2022/07/05 08:37:03;;;;;;;13.10;2.83;;;31.90;55.10;;;;;;4985581;28;20193;-77
2022/07/05 08:39:33;;;;;;;6.93;2.83;;;31.90;55.10;;;;;;4987055;28;20198;-77
2022/07/05 08:42:02;;;;;;;13.68;3.08;;;31.90;55.00;;;;;;4985486;28;20195;-76
2022/07/05 08:44:35;;;;;;;16.70;3.35;;;32.00;53.90;;;;;;4983776;28;20212;-76
2022/07/05 08:47:04;;;;;;;7.90;2.83;;;32.00;53.10;;;;;;4983785;28;20393;-76
2022/07/05 08:49:34;;;;;;;13.52;2.60;;;32.00;53.00;;;;;;4982873;28;20917;-76
2022/07/05 08:52:05;;;;;;;16.67;3.20;;;32.10;53.10;;;;;;4980477;28;20212;-76
2022/07/05 08:54:37;;;;;;;7.88;2.60;;;32.20;52.90;;;;;;4979749;28;20563;-74
2022/07/05 08:57:05;;;;;;;6.07;2.42;;;32.20;52.70;;;;;;4983469;28;20660;-75
2022/07/05 08:59:41;;;;;;;7.32;2.50;;;32.20;52.80;;;;;;4986635;28;20211;-75
2022/07/05 09:04:57;;;;;;;7.68;3.33;;;32.30;51.50;;;;;;4817286;26;20810;-76
2022/07/05 09:07:30;;;;;;;4.18;2.88;;;32.40;51.80;;;;;;4956184;28;20199;-76
2022/07/05 09:10:03;;;;;;;6.80;2.75;;;32.40;51.50;;;;;;4954375;28;20190;-74
2022/07/05 09:12:31;;;;;;;4.20;2.47;;;32.50;51.60;;;;;;4957699;28;20213;-75
2022/07/05 09:14:59;;;;;;;11.48;3.00;;;32.50;51.70;;;;;;4959135;28;20867;-76
2022/07/05 09:17:29;;;;;;;10.35;2.90;;;32.60;51.60;;;;;;4958901;28;20199;-75
2022/07/05 09:20:09;;;;;;;8.52;3.20;;;32.60;51.30;;;;;;4963797;28;20544;-75
2022/07/05 09:22:45;;;;;;;10.52;2.80;;;32.60;51.70;;;;;;4965158;28;20850;-76
2022/07/05 09:25:20;;;;;;;6.05;3.00;;;32.70;52.00;;;;;;4961578;28;20819;-76
2022/07/05 09:27:54;;;;;;;5.15;2.78;;;32.70;52.10;;;;;;4954964;28;20725;-76
2022/07/05 09:30:41;;;;;;;6.05;3.13;;;32.80;52.30;;;;;;4965740;28;20242;-74
2022/07/05 09:33:11;;;;;;;7.93;3.17;;;32.90;51.80;;;;;;4961230;28;20224;-76
2022/07/05 09:35:41;;;;;;;9.48;3.20;;;32.90;51.80;;;;;;4961751;28;20302;-77
2022/07/05 09:38:19;;;;;;;9.35;2.38;;;32.90;51.50;;;;;;4959057;28;20205;-76
2022/07/05 09:40:50;;;;;;;4.95;2.83;;;33.00;51.20;;;;;;4963579;28;20194;-76
2022/07/05 09:43:21;;;;;;;3.70;2.60;;;33.00;50.60;;;;;;4963953;28;20577;-76
2022/07/05 09:45:54;;;;;;;9.43;2.95;;;33.10;51.00;;;;;;4959400;28;20190;-77
2022/07/05 09:48:23;;;;;;;5.13;2.90;;;33.20;50.50;;;;;;4966482;28;20523;-76
2022/07/05 09:51:06;;;;;;;6.72;2.80;;;33.20;50.60;;;;;;4965465;28;20598;-76
2022/07/05 09:53:56;;;;;;;8.88;2.85;;;33.30;50.50;;;;;;4969037;28;20280;-79
2022/07/05 09:56:30;;;;;;;11.13;2.95;;;33.30;50.20;;;;;;4960288;28;20559;-77
2022/07/05 09:59:18;;;;;;;6.60;2.97;;;33.40;49.80;;;;;;4965299;28;20280;-80
2022/07/05 10:01:46;;;;;;;6.30;2.90;;;33.50;50.30;;;;;;4962342;28;20198;-77
2022/07/05 10:04:15;;;;;;;9.60;2.90;;;33.50;50.40;;;;;;4963950;28;20221;-75
2022/07/05 10:06:44;;;;;;;4.00;2.63;;;33.60;50.40;;;;;;4962943;28;20209;-76
2022/07/05 10:09:14;;;;;;;8.45;3.05;;;33.60;50.20;;;;;;4965433;28;20201;-74
2022/07/05 10:11:46;;;;;;;11.20;2.97;;;33.70;50.20;;;;;;4967175;28;20197;-76
2022/07/05 10:14:20;;;;;;;7.13;3.05;;;33.80;49.90;;;;;;4966585;28;20210;-78
2022/07/05 10:17:02;;;;;;;6.07;2.90;;;33.80;50.10;;;;;;4966906;28;20210;-76
2022/07/05 10:19:36;;;;;;;4.35;2.90;;;33.80;49.20;;;;;;4961602;28;20860;-77
2022/07/05 10:22:06;;;;;;;7.13;2.83;;;33.90;48.70;;;;;;4968792;28;20573;-77
2022/07/05 10:24:46;;;;;;;7.70;3.47;;;33.90;48.40;;;;;;4962370;28;20601;-75
2022/07/05 10:27:18;;;;;;;9.55;2.80;;;34.00;48.60;;;;;;4956115;28;20194;-75
2022/07/05 10:29:49;;;;;;;4.22;2.60;;;34.00;48.90;;;;;;4964504;28;20719;-75
2022/07/05 10:32:19;;;;;;;7.43;2.90;;;34.10;49.00;;;;;;4966450;28;20186;-75
2022/07/05 10:34:50;;;;;;;9.68;3.42;;;34.20;48.80;;;;;;4965316;28;20698;-75
2022/07/05 10:37:27;;;;;;;4.32;2.88;;;34.30;48.40;;;;;;4953441;28;20287;-76
2022/07/05 10:39:57;;;;;;;5.90;2.67;;;34.30;47.90;;;;;;4966404;28;20225;-77
2022/07/05 10:42:31;;;;;;;11.27;3.35;;;34.30;47.10;;;;;;4965400;28;20298;-77
2022/07/05 10:44:59;;;;;;;5.22;3.33;;;34.30;47.20;;;;;;4962463;28;20244;-76
2022/07/05 10:47:29;;;;;;;6.15;3.03;;;34.30;47.20;;;;;;4966032;28;20205;-76
2022/07/05 10:50:04;;;;;;;6.45;3.03;;;34.20;46.80;;;;;;4959420;28;20252;-76
2022/07/05 10:52:33;;;;;;;4.70;2.53;;;34.30;46.90;;;;;;4962407;28;20193;-75
2022/07/05 10:55:23;;;;;;;3.90;2.63;;;34.40;47.30;;;;;;4966753;28;20237;-75
2022/07/05 10:58:36;;;;;;;4.95;2.60;;;34.50;47.50;;;;;;4959600;28;20220;-75
2022/07/05 11:01:38;;;;;;;5.85;3.20;;;34.50;47.40;;;;;;4963773;28;20190;-78
2022/07/05 11:04:33;;;;;;;4.38;3.08;;;34.60;47.30;;;;;;4963337;28;20221;-76
2022/07/05 11:07:04;;;;;;;8.00;3.05;;;34.70;47.40;;;;;;4956022;28;20299;-76
2022/07/05 11:09:32;;;;;;;4.55;3.03;;;34.80;47.10;;;;;;4960859;28;20229;-77
2022/07/05 11:12:18;;;;;;;7.55;3.15;;;34.80;47.00;;;;;;4953584;28;20202;-78
2022/07/05 11:15:06;;;;;;;7.00;3.25;;;34.90;46.90;;;;;;4967263;28;20237;-76
2022/07/05 11:17:36;;;;;;;9.30;3.20;;;34.90;47.30;;;;;;4959484;28;20910;-78
2022/07/05 11:20:31;;;;;;;7.63;3.35;;;35.00;47.30;;;;;;4947384;28;20876;-76
2022/07/05 11:23:08;;;;;;;6.20;3.30;;;35.00;46.20;;;;;;4967562;28;20201;-75
2022/07/05 11:25:40;;;;;;;8.80;3.42;;;35.10;46.30;;;;;;4965662;28;20194;-76
2022/07/05 11:28:14;;;;;;;5.53;3.75;;;35.10;46.30;;;;;;4966991;28;20202;-76
2022/07/05 11:30:50;;;;;;;5.45;3.75;;;35.20;46.20;;;;;;4958063;28;20205;-75
2022/07/05 11:33:40;;;;;;;4.57;3.03;;;35.20;45.90;;;;;;4962803;28;20201;-76
2022/07/05 11:36:26;;;;;;;4.97;3.10;;;35.20;45.60;;;;;;4965476;28;20522;-75
2022/07/05 11:39:16;;;;;;;5.88;3.47;;;35.30;45.90;;;;;;4965888;28;20205;-76
2022/07/05 11:41:46;;;;;;;8.82;3.40;;;35.30;46.00;;;;;;4956302;28;20843;-76
2022/07/05 11:44:15;;;;;;;6.25;3.30;;;35.40;46.00;;;;;;4961206;28;20544;-76
2022/07/05 11:46:45;;;;;;;6.15;3.25;;;35.40;45.80;;;;;;4962718;28;20201;-76
2022/07/05 11:49:23;;;;;;;9.90;3.53;;;35.40;46.10;;;;;;4956764;28;20259;-76
2022/07/05 11:51:57;;;;;;;4.55;3.60;;;35.50;45.80;;;;;;4959057;28;20201;-76
2022/07/05 11:54:27;;;;;;;7.03;3.50;;;35.50;46.10;;;;;;4962291;28;20267;-77
2022/07/05 11:56:56;;;;;;;10.63;3.38;;;35.60;46.00;;;;;;4961015;28;20596;-75
2022/07/05 11:59:26;;;;;;;7.10;3.20;;;35.70;45.80;;;;;;4961655;28;20205;-74
2022/07/05 12:01:55;;;;;;;10.57;3.15;;;35.70;45.50;;;;;;4954024;28;20218;-76
2022/07/05 12:04:25;;;;;;;13.27;3.35;;;35.70;45.60;;;;;;4947838;28;20229;-77
2022/07/05 12:06:56;;;;;;;8.00;3.13;;;35.60;44.90;;;;;;4956617;28;20199;-78
2022/07/05 12:09:26;;;;;;;6.60;3.17;;;35.50;45.20;;;;;;4956686;28;20198;-78
2022/07/05 12:14:49;;;;;;;6.28;3.30;;;35.30;45.10;;;;;;4962201;28;20220;-76
2022/07/05 12:17:19;;;;;;;10.90;3.90;;;35.30;45.20;;;;;;4962030;28;20194;-77
2022/07/05 12:19:54;;;;;;;5.70;3.20;;;35.20;45.70;;;;;;4959343;28;20197;-78
2022/07/05 12:22:32;;;;;;;7.68;3.30;;;35.20;45.50;;;;;;4964658;28;20209;-76
2022/07/05 12:25:01;;;;;;;7.78;3.50;;;35.20;45.60;;;;;;4961666;28;20221;-78
2022/07/05 12:27:32;;;;;;;5.82;3.33;;;35.30;45.50;;;;;;4964074;28;20194;-76
2022/07/05 12:30:02;;;;;;;8.98;3.45;;;35.40;45.90;;;;;;4956448;28;20201;-76
2022/07/05 12:32:31;;;;;;;4.93;3.47;;;35.50;46.30;;;;;;4962389;28;20186;-77
2022/07/05 12:35:02;;;;;;;4.75;3.47;;;35.60;46.30;;;;;;4957407;28;20780;-78
2022/07/05 12:37:36;;;;;;;8.95;3.40;;;35.70;45.00;;;;;;4962619;28;20217;-78
2022/07/05 12:40:06;;;;;;;7.45;3.40;;;35.70;45.10;;;;;;4960264;28;20208;-76
2022/07/05 12:42:36;;;;;;;5.30;3.00;;;35.90;45.30;;;;;;4963452;28;20197;-77
2022/07/05 12:45:12;;;;;;;6.40;3.72;;;36.10;45.50;;;;;;4964419;28;20198;-77
2022/07/05 12:47:53;;;;;;;8.85;3.55;;;36.20;45.70;;;;;;4961126;28;20193;-75
2022/07/05 12:50:23;;;;;;;3.75;2.88;;;36.30;45.40;;;;;;4960935;28;20252;-75
2022/07/05 12:58:01;;;;;;;12.05;3.35;;;36.30;45.60;;;;;;4962233;28;20190;-75
2022/07/05 12:58:49;;;;;;;9.90;3.35;;;36.50;45.80;;;;;;4963290;28;20201;-78
2022/07/05 13:01:25;;;;;;;4.28;3.20;;;36.60;45.60;;;;;;4955515;28;20194;-76
2022/07/05 13:04:02;;;;;;;7.20;3.38;;;36.70;45.20;;;;;;4958206;28;20231;-77
2022/07/05 13:06:51;;;;;;;4.82;3.67;;;36.70;44.80;;;;;;4961943;28;20217;-75
2022/07/05 13:09:34;;;;;;;11.93;3.55;;;36.80;45.10;;;;;;4962180;28;20340;-76
2022/07/05 13:12:11;;;;;;;5.03;3.30;;;36.70;44.80;;;;;;4954682;28;20189;-78
2022/07/05 13:14:41;;;;;;;17.67;3.70;;;36.60;44.80;;;;;;4956711;28;20209;-76
2022/07/05 13:17:11;;;;;;;7.95;3.72;;;36.50;45.20;;;;;;4961757;28;20268;-76
2022/07/05 13:19:41;;;;;;;7.80;3.78;;;36.40;44.20;;;;;;4956142;28;20276;-76
2022/07/05 13:22:09;;;;;;;4.15;3.00;;;36.30;44.30;;;;;;4960852;28;20847;-78